sensor_id;sensor_type;location;lat;lon;timestamp;P1;durP1;ratioP1;P2;durP2;ratioP2
62509;SDS011;48558;48.242;11.654;2024-03-08T00:01:14;11.07;;;6.40;;
62509;SDS011;48558;48.242;11.654;2024-03-08T00:05:28;11.32;;;6.53;;
62509;SDS011;48558;48.242;11.654;2024-03-08T00:09:41;9.63;;;5.78;;
62509;SDS011;48558;48.242;11.654;2024-03-08T00:13:54;10.40;;;6.10;;
62509;SDS011;48558;48.242;11.654;2024-03-08T00:18:06;12.05;;;7.20;;
62509;SDS011;48558;48.242;11.654;2024-03-08T00:22:19;10.40;;;6.32;;
62509;SDS011;48558;48.242;11.654;2024-03-08T00:26:34;11.93;;;6.22;;
62509;SDS011;48558;48.242;11.654;2024-03-08T00:30:47;10.32;;;5.82;;
62509;SDS011;48558;48.242;11.654;2024-03-08T00:34:59;12.48;;;6.95;;
62509;SDS011;48558;48.242;11.654;2024-03-08T00:39:12;10.35;;;6.28;;
62509;SDS011;48558;48.242;11.654;2024-03-08T00:43:25;9.07;;;6.00;;
62509;SDS011;48558;48.242;11.654;2024-03-08T00:47:38;10.43;;;6.53;;
62509;SDS011;48558;48.242;11.654;2024-03-08T00:51:51;9.85;;;6.38;;
62509;SDS011;48558;48.242;11.654;2024-03-08T00:56:04;12.48;;;6.57;;
62509;SDS011;48558;48.242;11.654;2024-03-08T01:00:17;11.63;;;6.03;;
62509;SDS011;48558;48.242;11.654;2024-03-08T01:04:30;8.98;;;5.95;;
62509;SDS011;48558;48.242;11.654;2024-03-08T01:08:42;9.02;;;5.40;;
62509;SDS011;48558;48.242;11.654;2024-03-08T01:12:55;11.13;;;6.97;;
62509;SDS011;48558;48.242;11.654;2024-03-08T01:17:08;9.88;;;5.93;;
62509;SDS011;48558;48.242;11.654;2024-03-08T01:21:21;10.05;;;6.07;;
62509;SDS011;48558;48.242;11.654;2024-03-08T01:25:34;12.30;;;5.53;;
62509;SDS011;48558;48.242;11.654;2024-03-08T01:29:47;10.98;;;6.55;;
62509;SDS011;48558;48.242;11.654;2024-03-08T01:34:00;11.02;;;6.72;;
62509;SDS011;48558;48.242;11.654;2024-03-08T01:38:12;8.15;;;6.45;;
62509;SDS011;48558;48.242;11.654;2024-03-08T01:42:25;11.20;;;6.85;;
62509;SDS011;48558;48.242;11.654;2024-03-08T01:46:38;9.93;;;6.38;;
62509;SDS011;48558;48.242;11.654;2024-03-08T01:50:53;9.88;;;6.43;;
62509;SDS011;48558;48.242;11.654;2024-03-08T01:55:06;10.52;;;6.85;;
62509;SDS011;48558;48.242;11.654;2024-03-08T01:59:19;10.68;;;7.10;;
62509;SDS011;48558;48.242;11.654;2024-03-08T02:03:32;10.73;;;7.07;;
62509;SDS011;48558;48.242;11.654;2024-03-08T02:07:45;8.48;;;6.25;;
62509;SDS011;48558;48.242;11.654;2024-03-08T02:11:57;9.90;;;6.47;;
62509;SDS011;48558;48.242;11.654;2024-03-08T02:16:10;12.70;;;6.78;;
62509;SDS011;48558;48.242;11.654;2024-03-08T02:20:22;11.77;;;6.97;;
62509;SDS011;48558;48.242;11.654;2024-03-08T02:24:37;11.70;;;6.75;;
62509;SDS011;48558;48.242;11.654;2024-03-08T02:28:50;9.95;;;6.07;;
62509;SDS011;48558;48.242;11.654;2024-03-08T02:33:03;10.35;;;6.80;;
62509;SDS011;48558;48.242;11.654;2024-03-08T02:37:19;10.55;;;6.53;;
62509;SDS011;48558;48.242;11.654;2024-03-08T02:41:32;10.55;;;7.13;;
62509;SDS011;48558;48.242;11.654;2024-03-08T02:45:44;12.27;;;7.05;;
62509;SDS011;48558;48.242;11.654;2024-03-08T02:49:57;13.00;;;7.20;;
62509;SDS011;48558;48.242;11.654;2024-03-08T02:54:10;14.02;;;7.53;;
62509;SDS011;48558;48.242;11.654;2024-03-08T02:58:22;5.68;;;4.15;;
62509;SDS011;48558;48.242;11.654;2024-03-08T03:02:35;7.65;;;5.18;;
62509;SDS011;48558;48.242;11.654;2024-03-08T03:06:49;13.02;;;6.78;;
62509;SDS011;48558;48.242;11.654;2024-03-08T03:11:01;11.38;;;6.80;;
62509;SDS011;48558;48.242;11.654;2024-03-08T03:15:14;14.20;;;7.53;;
62509;SDS011;48558;48.242;11.654;2024-03-08T03:19:29;15.90;;;7.18;;
62509;SDS011;48558;48.242;11.654;2024-03-08T03:23:42;14.30;;;7.97;;
62509;SDS011;48558;48.242;11.654;2024-03-08T03:27:54;13.63;;;6.93;;
62509;SDS011;48558;48.242;11.654;2024-03-08T03:32:10;13.02;;;7.20;;
62509;SDS011;48558;48.242;11.654;2024-03-08T03:36:22;8.23;;;6.13;;
62509;SDS011;48558;48.242;11.654;2024-03-08T03:40:37;15.05;;;7.30;;
62509;SDS011;48558;48.242;11.654;2024-03-08T03:44:51;12.35;;;6.95;;
62509;SDS011;48558;48.242;11.654;2024-03-08T03:49:04;12.63;;;7.32;;
62509;SDS011;48558;48.242;11.654;2024-03-08T03:53:17;10.57;;;6.40;;
62509;SDS011;48558;48.242;11.654;2024-03-08T03:57:30;15.15;;;7.68;;
62509;SDS011;48558;48.242;11.654;2024-03-08T04:01:43;14.70;;;7.63;;
62509;SDS011;48558;48.242;11.654;2024-03-08T04:05:55;13.70;;;8.57;;
62509;SDS011;48558;48.242;11.654;2024-03-08T04:10:08;13.60;;;7.82;;
62509;SDS011;48558;48.242;11.654;2024-03-08T04:14:23;8.07;;;5.57;;
62509;SDS011;48558;48.242;11.654;2024-03-08T04:18:35;15.27;;;8.32;;
62509;SDS011;48558;48.242;11.654;2024-03-08T04:22:50;14.85;;;7.72;;
62509;SDS011;48558;48.242;11.654;2024-03-08T04:27:02;11.13;;;7.60;;
62509;SDS011;48558;48.242;11.654;2024-03-08T04:31:16;14.27;;;7.35;;
62509;SDS011;48558;48.242;11.654;2024-03-08T04:35:29;13.75;;;7.60;;
62509;SDS011;48558;48.242;11.654;2024-03-08T04:39:42;18.52;;;8.77;;
62509;SDS011;48558;48.242;11.654;2024-03-08T04:43:55;15.50;;;8.80;;
62509;SDS011;48558;48.242;11.654;2024-03-08T04:48:09;12.18;;;7.60;;
62509;SDS011;48558;48.242;11.654;2024-03-08T04:52:24;13.40;;;8.45;;
62509;SDS011;48558;48.242;11.654;2024-03-08T04:56:36;17.95;;;9.32;;
62509;SDS011;48558;48.242;11.654;2024-03-08T05:00:49;10.00;;;6.22;;
62509;SDS011;48558;48.242;11.654;2024-03-08T05:05:02;12.70;;;7.93;;
62509;SDS011;48558;48.242;11.654;2024-03-08T05:09:18;22.60;;;10.07;;
62509;SDS011;48558;48.242;11.654;2024-03-08T05:13:31;11.75;;;7.07;;
62509;SDS011;48558;48.242;11.654;2024-03-08T05:17:44;19.55;;;10.15;;
62509;SDS011;48558;48.242;11.654;2024-03-08T05:21:57;14.82;;;8.27;;
62509;SDS011;48558;48.242;11.654;2024-03-08T05:26:09;24.52;;;11.77;;
62509;SDS011;48558;48.242;11.654;2024-03-08T05:30:22;20.27;;;10.50;;
62509;SDS011;48558;48.242;11.654;2024-03-08T05:34:34;18.80;;;9.52;;
62509;SDS011;48558;48.242;11.654;2024-03-08T05:38:47;17.63;;;10.10;;
62509;SDS011;48558;48.242;11.654;2024-03-08T05:43:02;19.50;;;9.20;;
62509;SDS011;48558;48.242;11.654;2024-03-08T05:47:15;20.95;;;11.68;;
62509;SDS011;48558;48.242;11.654;2024-03-08T05:51:28;21.55;;;11.88;;
62509;SDS011;48558;48.242;11.654;2024-03-08T05:55:40;20.15;;;11.10;;
62509;SDS011;48558;48.242;11.654;2024-03-08T05:59:53;25.05;;;12.70;;
62509;SDS011;48558;48.242;11.654;2024-03-08T06:04:06;16.10;;;9.60;;
62509;SDS011;48558;48.242;11.654;2024-03-08T06:08:19;23.65;;;10.93;;
62509;SDS011;48558;48.242;11.654;2024-03-08T06:12:32;21.38;;;11.35;;
62509;SDS011;48558;48.242;11.654;2024-03-08T06:16:49;24.33;;;10.80;;
62509;SDS011;48558;48.242;11.654;2024-03-08T06:21:04;26.33;;;12.52;;
62509;SDS011;48558;48.242;11.654;2024-03-08T06:25:18;25.90;;;13.65;;
62509;SDS011;48558;48.242;11.654;2024-03-08T06:29:31;26.55;;;13.10;;
62509;SDS011;48558;48.242;11.654;2024-03-08T06:33:44;24.98;;;10.52;;
62509;SDS011;48558;48.242;11.654;2024-03-08T06:37:57;22.15;;;11.20;;
62509;SDS011;48558;48.242;11.654;2024-03-08T06:42:10;16.98;;;9.27;;
62509;SDS011;48558;48.242;11.654;2024-03-08T06:46:24;23.88;;;11.63;;
62509;SDS011;48558;48.242;11.654;2024-03-08T06:50:37;21.00;;;10.40;;
62509;SDS011;48558;48.242;11.654;2024-03-08T06:54:50;21.40;;;10.50;;
62509;SDS011;48558;48.242;11.654;2024-03-08T06:59:04;27.70;;;13.95;;
62509;SDS011;48558;48.242;11.654;2024-03-08T07:03:16;23.83;;;12.02;;
62509;SDS011;48558;48.242;11.654;2024-03-08T07:07:29;15.63;;;7.97;;
62509;SDS011;48558;48.242;11.654;2024-03-08T07:11:43;27.88;;;12.88;;
62509;SDS011;48558;48.242;11.654;2024-03-08T07:15:56;25.45;;;13.15;;
62509;SDS011;48558;48.242;11.654;2024-03-08T07:20:13;25.58;;;12.20;;
62509;SDS011;48558;48.242;11.654;2024-03-08T07:24:27;21.30;;;11.02;;
62509;SDS011;48558;48.242;11.654;2024-03-08T07:28:51;28.10;;;14.18;;
62509;SDS011;48558;48.242;11.654;2024-03-08T07:33:04;25.85;;;12.52;;
62509;SDS011;48558;48.242;11.654;2024-03-08T07:37:19;30.35;;;14.20;;
62509;SDS011;48558;48.242;11.654;2024-03-08T07:41:32;16.92;;;8.35;;
62509;SDS011;48558;48.242;11.654;2024-03-08T07:45:49;27.85;;;13.23;;
62509;SDS011;48558;48.242;11.654;2024-03-08T07:50:03;22.45;;;12.32;;
62509;SDS011;48558;48.242;11.654;2024-03-08T07:54:16;21.10;;;12.52;;
62509;SDS011;48558;48.242;11.654;2024-03-08T07:58:29;22.60;;;11.45;;
62509;SDS011;48558;48.242;11.654;2024-03-08T08:02:44;25.50;;;12.93;;
62509;SDS011;48558;48.242;11.654;2024-03-08T08:07:01;14.27;;;7.90;;
62509;SDS011;48558;48.242;11.654;2024-03-08T08:11:14;25.30;;;12.98;;
62509;SDS011;48558;48.242;11.654;2024-03-08T08:15:28;29.13;;;13.35;;
62509;SDS011;48558;48.242;11.654;2024-03-08T08:19:40;22.42;;;12.02;;
62509;SDS011;48558;48.242;11.654;2024-03-08T08:23:53;17.67;;;9.50;;
62509;SDS011;48558;48.242;11.654;2024-03-08T08:28:06;20.00;;;11.85;;
62509;SDS011;48558;48.242;11.654;2024-03-08T08:32:19;24.88;;;12.02;;
62509;SDS011;48558;48.242;11.654;2024-03-08T08:36:32;22.95;;;11.70;;
62509;SDS011;48558;48.242;11.654;2024-03-08T08:40:46;20.35;;;11.00;;
62509;SDS011;48558;48.242;11.654;2024-03-08T08:44:59;19.38;;;11.45;;
62509;SDS011;48558;48.242;11.654;2024-03-08T08:49:25;18.05;;;9.27;;
62509;SDS011;48558;48.242;11.654;2024-03-08T08:53:38;21.00;;;11.25;;
62509;SDS011;48558;48.242;11.654;2024-03-08T08:57:55;12.43;;;8.10;;
62509;SDS011;48558;48.242;11.654;2024-03-08T09:02:08;19.30;;;11.50;;
62509;SDS011;48558;48.242;11.654;2024-03-08T09:06:24;15.70;;;9.73;;
62509;SDS011;48558;48.242;11.654;2024-03-08T09:10:37;18.33;;;11.10;;
62509;SDS011;48558;48.242;11.654;2024-03-08T09:14:51;23.02;;;12.35;;
62509;SDS011;48558;48.242;11.654;2024-03-08T09:19:04;21.60;;;12.55;;
62509;SDS011;48558;48.242;11.654;2024-03-08T09:23:20;22.63;;;11.75;;
62509;SDS011;48558;48.242;11.654;2024-03-08T09:27:33;20.27;;;11.75;;
62509;SDS011;48558;48.242;11.654;2024-03-08T09:31:50;17.92;;;10.95;;
62509;SDS011;48558;48.242;11.654;2024-03-08T09:36:03;21.58;;;9.98;;
62509;SDS011;48558;48.242;11.654;2024-03-08T09:40:17;18.52;;;11.50;;
62509;SDS011;48558;48.242;11.654;2024-03-08T09:44:32;19.38;;;10.35;;
62509;SDS011;48558;48.242;11.654;2024-03-08T09:48:45;17.10;;;9.77;;
62509;SDS011;48558;48.242;11.654;2024-03-08T09:52:58;23.45;;;12.52;;
62509;SDS011;48558;48.242;11.654;2024-03-08T09:57:11;14.77;;;8.60;;
62509;SDS011;48558;48.242;11.654;2024-03-08T10:01:24;18.63;;;11.73;;
62509;SDS011;48558;48.242;11.654;2024-03-08T10:05:38;20.88;;;12.65;;
62509;SDS011;48558;48.242;11.654;2024-03-08T10:09:51;18.58;;;11.10;;
62509;SDS011;48558;48.242;11.654;2024-03-08T10:14:04;19.25;;;11.45;;
62509;SDS011;48558;48.242;11.654;2024-03-08T10:18:18;20.52;;;12.00;;
62509;SDS011;48558;48.242;11.654;2024-03-08T10:22:31;21.83;;;11.68;;
62509;SDS011;48558;48.242;11.654;2024-03-08T10:26:43;20.63;;;12.35;;
62509;SDS011;48558;48.242;11.654;2024-03-08T10:30:56;17.65;;;10.85;;
62509;SDS011;48558;48.242;11.654;2024-03-08T10:35:10;18.27;;;11.10;;
62509;SDS011;48558;48.242;11.654;2024-03-08T10:39:24;21.55;;;11.95;;
62509;SDS011;48558;48.242;11.654;2024-03-08T10:48:39;19.25;;;11.82;;
62509;SDS011;48558;48.242;11.654;2024-03-08T10:52:58;21.40;;;7.95;;
62509;SDS011;48558;48.242;11.654;2024-03-08T10:57:13;14.32;;;9.15;;
62509;SDS011;48558;48.242;11.654;2024-03-08T11:01:30;17.08;;;10.35;;
62509;SDS011;48558;48.242;11.654;2024-03-08T11:05:43;17.90;;;11.00;;
62509;SDS011;48558;48.242;11.654;2024-03-08T11:09:57;15.63;;;10.40;;
62509;SDS011;48558;48.242;11.654;2024-03-08T11:14:42;19.60;;;10.70;;
62509;SDS011;48558;48.242;11.654;2024-03-08T11:23:22;17.65;;;11.25;;
62509;SDS011;48558;48.242;11.654;2024-03-08T11:27:36;18.05;;;11.30;;
62509;SDS011;48558;48.242;11.654;2024-03-08T11:31:49;16.52;;;11.32;;
62509;SDS011;48558;48.242;11.654;2024-03-08T11:40:23;15.52;;;9.02;;
62509;SDS011;48558;48.242;11.654;2024-03-08T11:44:36;17.50;;;10.15;;
62509;SDS011;48558;48.242;11.654;2024-03-08T11:48:48;17.40;;;11.43;;
62509;SDS011;48558;48.242;11.654;2024-03-08T11:53:02;16.85;;;10.32;;
62509;SDS011;48558;48.242;11.654;2024-03-08T11:57:17;14.95;;;9.05;;
62509;SDS011;48558;48.242;11.654;2024-03-08T12:01:31;14.93;;;9.20;;
62509;SDS011;48558;48.242;11.654;2024-03-08T12:05:43;15.88;;;9.50;;
62509;SDS011;48558;48.242;11.654;2024-03-08T12:14:31;18.17;;;10.35;;
62509;SDS011;48558;48.242;11.654;2024-03-08T12:18:45;18.00;;;11.05;;
62509;SDS011;48558;48.242;11.654;2024-03-08T12:22:58;15.38;;;9.77;;
62509;SDS011;48558;48.242;11.654;2024-03-08T12:27:20;14.93;;;9.98;;
62509;SDS011;48558;48.242;11.654;2024-03-08T12:31:33;14.52;;;9.82;;
62509;SDS011;48558;48.242;11.654;2024-03-08T12:35:52;12.63;;;8.40;;
62509;SDS011;48558;48.242;11.654;2024-03-08T12:40:09;15.48;;;9.48;;
62509;SDS011;48558;48.242;11.654;2024-03-08T12:44:22;9.25;;;6.78;;
62509;SDS011;48558;48.242;11.654;2024-03-08T12:48:35;12.80;;;8.43;;
62509;SDS011;48558;48.242;11.654;2024-03-08T12:52:48;17.10;;;9.88;;
62509;SDS011;48558;48.242;11.654;2024-03-08T12:57:04;14.68;;;8.85;;
62509;SDS011;48558;48.242;11.654;2024-03-08T13:01:17;15.23;;;9.13;;
62509;SDS011;48558;48.242;11.654;2024-03-08T13:05:29;13.30;;;8.75;;
62509;SDS011;48558;48.242;11.654;2024-03-08T13:09:42;10.18;;;6.82;;
62509;SDS011;48558;48.242;11.654;2024-03-08T13:13:55;13.48;;;8.93;;
62509;SDS011;48558;48.242;11.654;2024-03-08T13:18:07;15.75;;;8.52;;
62509;SDS011;48558;48.242;11.654;2024-03-08T13:22:21;10.70;;;7.43;;
62509;SDS011;48558;48.242;11.654;2024-03-08T13:26:35;12.27;;;8.20;;
62509;SDS011;48558;48.242;11.654;2024-03-08T13:30:48;13.75;;;8.65;;
62509;SDS011;48558;48.242;11.654;2024-03-08T13:35:02;12.50;;;7.40;;
62509;SDS011;48558;48.242;11.654;2024-03-08T13:39:17;10.10;;;7.00;;
62509;SDS011;48558;48.242;11.654;2024-03-08T13:43:32;9.55;;;6.85;;
62509;SDS011;48558;48.242;11.654;2024-03-08T13:47:46;9.73;;;6.97;;
62509;SDS011;48558;48.242;11.654;2024-03-08T13:51:59;10.27;;;7.50;;
62509;SDS011;48558;48.242;11.654;2024-03-08T13:56:11;7.65;;;5.18;;
62509;SDS011;48558;48.242;11.654;2024-03-08T14:00:24;6.82;;;5.45;;
62509;SDS011;48558;48.242;11.654;2024-03-08T14:04:39;9.95;;;7.28;;
62509;SDS011;48558;48.242;11.654;2024-03-08T14:08:53;8.50;;;5.68;;
62509;SDS011;48558;48.242;11.654;2024-03-08T14:13:08;12.48;;;7.85;;
62509;SDS011;48558;48.242;11.654;2024-03-08T14:17:23;9.90;;;6.65;;
62509;SDS011;48558;48.242;11.654;2024-03-08T14:21:39;10.25;;;7.63;;
62509;SDS011;48558;48.242;11.654;2024-03-08T14:25:51;13.18;;;7.60;;
62509;SDS011;48558;48.242;11.654;2024-03-08T14:30:04;9.15;;;7.00;;
62509;SDS011;48558;48.242;11.654;2024-03-08T14:34:22;10.05;;;7.05;;
62509;SDS011;48558;48.242;11.654;2024-03-08T14:38:38;9.15;;;6.28;;
62509;SDS011;48558;48.242;11.654;2024-03-08T14:42:51;9.23;;;6.70;;
62509;SDS011;48558;48.242;11.654;2024-03-08T14:47:04;10.15;;;6.97;;
62509;SDS011;48558;48.242;11.654;2024-03-08T14:51:19;9.38;;;7.20;;
62509;SDS011;48558;48.242;11.654;2024-03-08T14:55:35;10.45;;;7.20;;
62509;SDS011;48558;48.242;11.654;2024-03-08T14:59:48;9.20;;;6.45;;
62509;SDS011;48558;48.242;11.654;2024-03-08T15:04:01;10.60;;;7.60;;
62509;SDS011;48558;48.242;11.654;2024-03-08T15:08:20;8.98;;;7.00;;
62509;SDS011;48558;48.242;11.654;2024-03-08T15:12:37;9.32;;;6.55;;
62509;SDS011;48558;48.242;11.654;2024-03-08T15:16:51;9.68;;;6.75;;
62509;SDS011;48558;48.242;11.654;2024-03-08T15:21:04;9.48;;;6.25;;
62509;SDS011;48558;48.242;11.654;2024-03-08T15:25:21;10.52;;;6.75;;
62509;SDS011;48558;48.242;11.654;2024-03-08T15:29:38;9.27;;;6.35;;
62509;SDS011;48558;48.242;11.654;2024-03-08T15:33:50;10.73;;;6.78;;
62509;SDS011;48558;48.242;11.654;2024-03-08T15:38:18;7.35;;;5.22;;
62509;SDS011;48558;48.242;11.654;2024-03-08T15:42:33;7.70;;;5.05;;
62509;SDS011;48558;48.242;11.654;2024-03-08T15:46:46;8.68;;;5.28;;
62509;SDS011;48558;48.242;11.654;2024-03-08T15:50:59;10.02;;;6.32;;
62509;SDS011;48558;48.242;11.654;2024-03-08T15:55:14;10.75;;;6.65;;
62509;SDS011;48558;48.242;11.654;2024-03-08T15:59:31;11.23;;;6.18;;
62509;SDS011;48558;48.242;11.654;2024-03-08T16:03:49;10.75;;;6.55;;
62509;SDS011;48558;48.242;11.654;2024-03-08T16:08:01;11.65;;;7.38;;
62509;SDS011;48558;48.242;11.654;2024-03-08T16:12:15;14.43;;;7.50;;
62509;SDS011;48558;48.242;11.654;2024-03-08T16:16:28;10.70;;;6.78;;
62509;SDS011;48558;48.242;11.654;2024-03-08T16:20:42;12.20;;;7.25;;
62509;SDS011;48558;48.242;11.654;2024-03-08T16:29:16;13.68;;;7.30;;
62509;SDS011;48558;48.242;11.654;2024-03-08T16:33:29;10.65;;;5.97;;
62509;SDS011;48558;48.242;11.654;2024-03-08T16:37:42;14.43;;;7.85;;
62509;SDS011;48558;48.242;11.654;2024-03-08T16:41:54;12.48;;;6.88;;
62509;SDS011;48558;48.242;11.654;2024-03-08T16:46:09;13.30;;;7.05;;
62509;SDS011;48558;48.242;11.654;2024-03-08T16:50:24;12.57;;;7.45;;
62509;SDS011;48558;48.242;11.654;2024-03-08T16:54:39;10.07;;;6.95;;
62509;SDS011;48558;48.242;11.654;2024-03-08T16:59:02;9.57;;;5.43;;
62509;SDS011;48558;48.242;11.654;2024-03-08T17:03:16;10.55;;;7.07;;
62509;SDS011;48558;48.242;11.654;2024-03-08T17:07:29;10.73;;;6.57;;
62509;SDS011;48558;48.242;11.654;2024-03-08T17:11:44;12.40;;;7.43;;
62509;SDS011;48558;48.242;11.654;2024-03-08T17:15:56;13.82;;;7.28;;
62509;SDS011;48558;48.242;11.654;2024-03-08T17:20:09;10.60;;;6.70;;
62509;SDS011;48558;48.242;11.654;2024-03-08T17:24:27;10.60;;;5.53;;
62509;SDS011;48558;48.242;11.654;2024-03-08T17:28:40;12.98;;;7.35;;
62509;SDS011;48558;48.242;11.654;2024-03-08T17:32:55;9.90;;;6.78;;
62509;SDS011;48558;48.242;11.654;2024-03-08T17:37:27;11.18;;;7.40;;
62509;SDS011;48558;48.242;11.654;2024-03-08T17:41:40;9.63;;;6.78;;
62509;SDS011;48558;48.242;11.654;2024-03-08T17:45:52;11.38;;;6.97;;
62509;SDS011;48558;48.242;11.654;2024-03-08T17:50:05;10.27;;;7.25;;
62509;SDS011;48558;48.242;11.654;2024-03-08T17:54:22;10.32;;;6.38;;
62509;SDS011;48558;48.242;11.654;2024-03-08T17:58:35;12.23;;;6.60;;
62509;SDS011;48558;48.242;11.654;2024-03-08T18:02:48;15.95;;;7.32;;
62509;SDS011;48558;48.242;11.654;2024-03-08T18:07:04;13.73;;;7.93;;
62509;SDS011;48558;48.242;11.654;2024-03-08T18:11:19;13.75;;;7.95;;
62509;SDS011;48558;48.242;11.654;2024-03-08T18:15:34;10.45;;;6.13;;
62509;SDS011;48558;48.242;11.654;2024-03-08T18:19:47;13.50;;;7.40;;
62509;SDS011;48558;48.242;11.654;2024-03-08T18:24:02;11.40;;;7.10;;
62509;SDS011;48558;48.242;11.654;2024-03-08T18:28:16;12.50;;;6.70;;
62509;SDS011;48558;48.242;11.654;2024-03-08T18:32:30;12.60;;;6.88;;
62509;SDS011;48558;48.242;11.654;2024-03-08T18:36:43;8.95;;;5.75;;
62509;SDS011;48558;48.242;11.654;2024-03-08T18:40:56;11.55;;;7.00;;
62509;SDS011;48558;48.242;11.654;2024-03-08T18:45:11;12.82;;;7.47;;
62509;SDS011;48558;48.242;11.654;2024-03-08T18:49:26;6.85;;;4.70;;
62509;SDS011;48558;48.242;11.654;2024-03-08T18:53:39;13.73;;;7.95;;
62509;SDS011;48558;48.242;11.654;2024-03-08T18:57:54;11.95;;;5.53;;
62509;SDS011;48558;48.242;11.654;2024-03-08T19:02:10;10.43;;;6.35;;
62509;SDS011;48558;48.242;11.654;2024-03-08T19:06:23;10.20;;;6.75;;
62509;SDS011;48558;48.242;11.654;2024-03-08T19:10:39;10.60;;;5.55;;
62509;SDS011;48558;48.242;11.654;2024-03-08T19:14:52;10.13;;;5.63;;
62509;SDS011;48558;48.242;11.654;2024-03-08T19:19:05;10.13;;;6.22;;
62509;SDS011;48558;48.242;11.654;2024-03-08T19:23:18;7.28;;;4.88;;
62509;SDS011;48558;48.242;11.654;2024-03-08T19:27:30;7.05;;;4.45;;
62509;SDS011;48558;48.242;11.654;2024-03-08T19:31:43;10.07;;;6.05;;
62509;SDS011;48558;48.242;11.654;2024-03-08T19:35:56;10.15;;;5.82;;
62509;SDS011;48558;48.242;11.654;2024-03-08T19:40:15;10.75;;;6.43;;
62509;SDS011;48558;48.242;11.654;2024-03-08T19:44:32;9.52;;;6.28;;
62509;SDS011;48558;48.242;11.654;2024-03-08T19:48:45;7.32;;;5.13;;
62509;SDS011;48558;48.242;11.654;2024-03-08T19:52:58;8.32;;;5.68;;
62509;SDS011;48558;48.242;11.654;2024-03-08T19:57:17;7.57;;;4.30;;
62509;SDS011;48558;48.242;11.654;2024-03-08T20:01:29;6.97;;;5.05;;
62509;SDS011;48558;48.242;11.654;2024-03-08T20:05:42;10.27;;;6.63;;
62509;SDS011;48558;48.242;11.654;2024-03-08T20:09:56;9.45;;;5.47;;
62509;SDS011;48558;48.242;11.654;2024-03-08T20:14:11;8.82;;;5.10;;
62509;SDS011;48558;48.242;11.654;2024-03-08T20:18:23;8.73;;;5.57;;
62509;SDS011;48558;48.242;11.654;2024-03-08T20:22:39;11.27;;;6.10;;
62509;SDS011;48558;48.242;11.654;2024-03-08T20:27:10;8.40;;;5.13;;
62509;SDS011;48558;48.242;11.654;2024-03-08T20:31:23;8.73;;;5.50;;
62509;SDS011;48558;48.242;11.654;2024-03-08T20:35:36;10.13;;;5.95;;
62509;SDS011;48558;48.242;11.654;2024-03-08T20:39:48;7.75;;;5.40;;
62509;SDS011;48558;48.242;11.654;2024-03-08T20:44:03;9.15;;;5.68;;
62509;SDS011;48558;48.242;11.654;2024-03-08T20:48:16;9.93;;;4.95;;
62509;SDS011;48558;48.242;11.654;2024-03-08T20:52:33;10.05;;;5.53;;
62509;SDS011;48558;48.242;11.654;2024-03-08T20:56:46;9.18;;;6.07;;
62509;SDS011;48558;48.242;11.654;2024-03-08T21:00:59;7.70;;;5.47;;
62509;SDS011;48558;48.242;11.654;2024-03-08T21:05:12;8.70;;;5.50;;
62509;SDS011;48558;48.242;11.654;2024-03-08T21:09:24;8.00;;;5.05;;
62509;SDS011;48558;48.242;11.654;2024-03-08T21:13:37;8.35;;;5.10;;
62509;SDS011;48558;48.242;11.654;2024-03-08T21:17:50;7.45;;;5.05;;
62509;SDS011;48558;48.242;11.654;2024-03-08T21:22:03;11.32;;;4.97;;
62509;SDS011;48558;48.242;11.654;2024-03-08T21:26:16;8.07;;;5.07;;
62509;SDS011;48558;48.242;11.654;2024-03-08T21:30:30;7.05;;;4.63;;
62509;SDS011;48558;48.242;11.654;2024-03-08T21:34:45;7.30;;;4.55;;
62509;SDS011;48558;48.242;11.654;2024-03-08T21:38:57;9.30;;;5.72;;
62509;SDS011;48558;48.242;11.654;2024-03-08T21:43:10;7.63;;;5.45;;
62509;SDS011;48558;48.242;11.654;2024-03-08T21:47:22;7.65;;;5.13;;
62509;SDS011;48558;48.242;11.654;2024-03-08T21:51:35;10.55;;;5.90;;
62509;SDS011;48558;48.242;11.654;2024-03-08T21:55:51;8.43;;;4.95;;
62509;SDS011;48558;48.242;11.654;2024-03-08T22:00:04;8.90;;;5.32;;
62509;SDS011;48558;48.242;11.654;2024-03-08T22:04:23;7.45;;;4.88;;
62509;SDS011;48558;48.242;11.654;2024-03-08T22:08:39;7.93;;;5.15;;
62509;SDS011;48558;48.242;11.654;2024-03-08T22:12:54;10.93;;;5.05;;
62509;SDS011;48558;48.242;11.654;2024-03-08T22:17:07;11.52;;;6.15;;
62509;SDS011;48558;48.242;11.654;2024-03-08T22:21:21;7.53;;;4.75;;
62509;SDS011;48558;48.242;11.654;2024-03-08T22:25:34;6.82;;;4.30;;
62509;SDS011;48558;48.242;11.654;2024-03-08T22:29:48;7.25;;;5.10;;
62509;SDS011;48558;48.242;11.654;2024-03-08T22:34:07;6.90;;;4.95;;
62509;SDS011;48558;48.242;11.654;2024-03-08T22:38:20;8.60;;;5.03;;
62509;SDS011;48558;48.242;11.654;2024-03-08T22:42:33;7.85;;;4.65;;
62509;SDS011;48558;48.242;11.654;2024-03-08T22:46:46;6.60;;;5.10;;
62509;SDS011;48558;48.242;11.654;2024-03-08T22:50:59;6.75;;;4.68;;
62509;SDS011;48558;48.242;11.654;2024-03-08T22:55:12;5.53;;;4.05;;
62509;SDS011;48558;48.242;11.654;2024-03-08T22:59:32;6.82;;;4.72;;
62509;SDS011;48558;48.242;11.654;2024-03-08T23:03:45;7.43;;;4.70;;
62509;SDS011;48558;48.242;11.654;2024-03-08T23:07:58;5.78;;;3.95;;
62509;SDS011;48558;48.242;11.654;2024-03-08T23:12:12;7.82;;;4.72;;
62509;SDS011;48558;48.242;11.654;2024-03-08T23:16:25;6.07;;;4.18;;
62509;SDS011;48558;48.242;11.654;2024-03-08T23:20:40;7.22;;;4.70;;
62509;SDS011;48558;48.242;11.654;2024-03-08T23:24:56;5.32;;;3.92;;
62509;SDS011;48558;48.242;11.654;2024-03-08T23:29:10;7.60;;;5.15;;
62509;SDS011;48558;48.242;11.654;2024-03-08T23:33:23;7.28;;;4.55;;
62509;SDS011;48558;48.242;11.654;2024-03-08T23:37:35;5.70;;;4.22;;
62509;SDS011;48558;48.242;11.654;2024-03-08T23:41:49;6.13;;;4.13;;
62509;SDS011;48558;48.242;11.654;2024-03-08T23:46:02;7.60;;;4.75;;
62509;SDS011;48558;48.242;11.654;2024-03-08T23:50:16;8.90;;;4.47;;
62509;SDS011;48558;48.242;11.654;2024-03-08T23:54:34;8.25;;;4.32;;
62509;SDS011;48558;48.242;11.654;2024-03-08T23:58:46;6.97;;;4.20;;
